createdAt,value
2022-11-12T00:00:51.004Z,5.22
2022-11-12T00:02:52.966Z,5.78
2022-11-12T00:04:55.046Z,5.97
2022-11-12T00:06:57.247Z,4.88
2022-11-12T00:08:59.199Z,5.50
2022-11-12T00:11:01.048Z,6.00
2022-11-12T00:13:03.267Z,7.15
2022-11-12T00:15:06.067Z,6.03
2022-11-12T00:17:07.987Z,5.78
2022-11-12T00:19:09.926Z,4.85
2022-11-12T00:21:11.867Z,6.63
2022-11-12T00:23:13.757Z,6.05
2022-11-12T00:25:15.837Z,4.93
2022-11-12T00:27:18.006Z,5.68
2022-11-12T00:29:20.007Z,5.57
2022-11-12T00:31:21.787Z,5.75
2022-11-12T00:33:23.849Z,6.20
2022-11-12T00:35:25.906Z,5.60
2022-11-12T00:37:28.015Z,5.70
2022-11-12T00:39:30.250Z,6.28
2022-11-12T00:41:32.320Z,5.65
2022-11-12T00:43:34.547Z,5.30
2022-11-12T00:45:36.408Z,5.63
2022-11-12T00:47:40.967Z,6.50
2022-11-12T00:49:43.500Z,6.25
2022-11-12T00:51:45.417Z,6.88
2022-11-12T00:53:49.277Z,6.25
2022-11-12T00:55:51.197Z,6.65
2022-11-12T00:57:53.225Z,6.88
2022-11-12T00:59:55.196Z,7.32
2022-11-12T01:01:57.467Z,7.38
2022-11-12T01:04:01.120Z,7.32
2022-11-12T01:06:09.411Z,7.35
2022-11-12T01:08:11.287Z,7.68
2022-11-12T01:10:14.797Z,7.20
2022-11-12T01:12:16.811Z,7.00
2022-11-12T01:14:18.700Z,7.70
2022-11-12T01:16:22.880Z,7.50
2022-11-12T01:18:25.051Z,8.10
2022-11-12T01:20:27.158Z,6.80
2022-11-12T01:22:29.027Z,7.35
2022-11-12T01:24:30.859Z,7.50
2022-11-12T01:26:32.781Z,7.18
2022-11-12T01:28:35.028Z,7.05
2022-11-12T01:30:36.999Z,6.82
2022-11-12T01:32:38.945Z,6.53
2022-11-12T01:34:40.809Z,6.43
2022-11-12T01:36:43.840Z,7.45
2022-11-12T01:38:47.372Z,6.00
2022-11-12T01:40:49.168Z,6.75
2022-11-12T01:42:53.759Z,6.40
2022-11-12T01:44:55.787Z,5.70
2022-11-12T01:47:01.086Z,6.50
2022-11-12T01:49:07.706Z,6.35
2022-11-12T01:51:12.317Z,6.90
2022-11-12T01:53:14.696Z,6.35
2022-11-12T01:55:20.818Z,5.93
2022-11-12T01:57:34.842Z,6.72
2022-11-12T01:59:44.148Z,6.78
2022-11-12T02:01:46.078Z,6.85
2022-11-12T02:03:47.920Z,6.82
2022-11-12T02:05:53.917Z,6.95
2022-11-12T02:07:58.936Z,7.80
2022-11-12T02:10:02.751Z,7.38
2022-11-12T02:12:05.748Z,7.03
2022-11-12T02:14:08.107Z,7.38
2022-11-12T02:16:11.114Z,7.25
2022-11-12T02:18:14.036Z,7.93
2022-11-12T02:20:16.787Z,7.95
2022-11-12T02:22:18.717Z,7.78
2022-11-12T02:24:21.057Z,7.40
2022-11-12T02:26:22.866Z,7.90
2022-11-12T02:28:25.190Z,7.88
2022-11-12T02:30:39.970Z,7.47
2022-11-12T02:32:41.913Z,8.23
2022-11-12T02:34:43.826Z,8.07
2022-11-12T02:36:45.697Z,8.15
2022-11-12T02:38:47.666Z,8.00
2022-11-12T02:40:49.746Z,8.40
2022-11-12T02:42:51.696Z,12.02
2022-11-12T02:44:54.253Z,8.40
2022-11-12T02:46:56.125Z,9.52
2022-11-12T02:48:58.086Z,9.10
2022-11-12T02:50:59.876Z,10.82
2022-11-12T02:53:01.724Z,14.20
2022-11-12T02:55:04.178Z,9.25
2022-11-12T02:57:05.917Z,9.27
2022-11-12T02:59:09.316Z,8.90
2022-11-12T03:01:11.152Z,10.20
2022-11-12T03:03:13.099Z,10.52
2022-11-12T03:05:15.335Z,9.02
2022-11-12T03:07:17.336Z,10.85
2022-11-12T03:09:19.247Z,11.35
2022-11-12T03:11:21.079Z,10.30
2022-11-12T03:13:23.086Z,9.05
2022-11-12T03:15:25.346Z,10.60
2022-11-12T03:17:27.127Z,9.35
2022-11-12T03:19:28.995Z,9.57
2022-11-12T03:21:31.084Z,10.52
2022-11-12T03:23:32.996Z,9.82
2022-11-12T03:25:36.146Z,9.60
2022-11-12T03:27:37.996Z,9.95
2022-11-12T03:29:39.848Z,9.07
2022-11-12T03:31:41.846Z,7.85
2022-11-12T03:33:45.746Z,8.05
2022-11-12T03:35:47.667Z,9.00
2022-11-12T03:37:49.896Z,7.22
2022-11-12T03:39:51.836Z,8.90
2022-11-12T03:41:53.586Z,8.25
2022-11-12T03:43:55.357Z,7.45
2022-11-12T03:45:57.236Z,8.65
2022-11-12T03:47:59.349Z,7.15
2022-11-12T03:50:02.397Z,7.25
2022-11-12T03:52:04.309Z,8.10
2022-11-12T03:54:06.348Z,8.25
2022-11-12T03:56:08.250Z,9.00
2022-11-12T03:58:10.234Z,7.57
2022-11-12T04:00:13.467Z,8.73
2022-11-12T04:02:15.416Z,7.85
2022-11-12T04:04:17.410Z,8.35
2022-11-12T04:06:30.007Z,8.18
2022-11-12T04:08:42.016Z,9.05
2022-11-12T04:10:44.357Z,7.90
2022-11-12T04:12:56.467Z,8.52
2022-11-12T04:14:58.327Z,7.57
2022-11-12T04:17:09.637Z,8.25
2022-11-12T04:19:22.718Z,7.97
2022-11-12T04:21:39.846Z,7.35
2022-11-12T04:23:41.755Z,8.48
2022-11-12T04:25:53.907Z,8.15
2022-11-12T04:27:55.656Z,8.30
2022-11-12T04:30:08.060Z,7.57
2022-11-12T04:32:09.958Z,8.48
2022-11-12T04:34:22.388Z,8.05
2022-11-12T04:36:24.290Z,7.82
2022-11-12T04:38:26.400Z,8.57
2022-11-12T04:40:38.537Z,7.60
2022-11-12T04:42:51.007Z,8.25
2022-11-12T04:45:03.266Z,8.30
2022-11-12T04:47:05.267Z,8.63
2022-11-12T04:49:07.025Z,7.82
2022-11-12T04:51:28.778Z,8.55
2022-11-12T04:53:31.136Z,8.43
2022-11-12T04:55:33.128Z,7.75
2022-11-12T04:57:35.358Z,9.35
2022-11-12T04:59:37.134Z,7.30
2022-11-12T05:01:39.013Z,10.25
2022-11-12T05:03:40.817Z,9.93
2022-11-12T05:05:43.006Z,9.98
2022-11-12T05:07:44.787Z,8.45
2022-11-12T05:09:46.703Z,8.85
2022-11-12T05:11:48.627Z,8.95
2022-11-12T05:13:50.407Z,8.52
2022-11-12T05:15:52.482Z,8.77
2022-11-12T05:17:54.367Z,8.80
2022-11-12T05:19:56.299Z,8.90
2022-11-12T05:22:17.497Z,8.90
2022-11-12T05:24:41.648Z,9.32
2022-11-12T05:26:44.355Z,8.93
2022-11-12T05:28:46.206Z,9.02
2022-11-12T05:30:48.618Z,9.23
2022-11-12T05:32:50.566Z,10.20
2022-11-12T05:34:52.475Z,9.35
2022-11-12T05:36:54.396Z,9.38
2022-11-12T05:38:56.445Z,8.95
2022-11-12T05:40:58.192Z,8.90
2022-11-12T05:42:59.997Z,9.30
2022-11-12T05:45:01.916Z,9.23
2022-11-12T05:47:04.097Z,9.63
2022-11-12T05:49:05.859Z,9.70
2022-11-12T05:51:12.925Z,9.30
2022-11-12T05:53:15.659Z,9.60
2022-11-12T05:55:17.506Z,9.20
2022-11-12T05:57:19.364Z,9.18
2022-11-12T05:59:22.341Z,10.18
2022-11-12T06:01:24.929Z,11.40
2022-11-12T06:03:27.136Z,9.48
2022-11-12T06:05:28.956Z,10.32
2022-11-12T06:07:30.804Z,9.20
2022-11-12T06:09:32.788Z,9.85
2022-11-12T06:11:34.905Z,10.50
2022-11-12T06:13:36.876Z,10.35
2022-11-12T06:15:39.554Z,10.07
2022-11-12T06:17:42.717Z,10.60
2022-11-12T06:19:44.626Z,10.93
2022-11-12T06:21:46.537Z,10.52
2022-11-12T06:23:51.526Z,9.65
2022-11-12T06:25:53.408Z,10.10
2022-11-12T06:27:55.534Z,10.25
2022-11-12T06:29:57.778Z,9.32
2022-11-12T06:31:59.556Z,9.85
2022-11-12T06:34:01.419Z,10.20
2022-11-12T06:36:07.893Z,10.15
2022-11-12T06:38:09.747Z,9.75
2022-11-12T06:40:12.298Z,9.82
2022-11-12T06:42:14.367Z,10.20
2022-11-12T06:44:21.787Z,9.30
2022-11-12T06:46:24.167Z,9.63
2022-11-12T06:48:28.754Z,9.50
2022-11-12T06:50:31.049Z,10.50
2022-11-12T06:52:32.774Z,10.10
2022-11-12T06:54:34.494Z,10.38
2022-11-12T06:56:36.885Z,9.23
2022-11-12T06:58:38.895Z,9.65
2022-11-12T07:00:40.965Z,9.65
2022-11-12T07:02:42.804Z,9.32
2022-11-12T07:04:44.663Z,9.63
2022-11-12T07:06:46.810Z,10.35
2022-11-12T07:08:49.977Z,9.35
2022-11-12T07:10:57.448Z,9.93
2022-11-12T07:12:59.524Z,8.65
2022-11-12T07:15:01.457Z,9.02
2022-11-12T07:17:04.457Z,8.88
2022-11-12T07:19:06.876Z,8.10
2022-11-12T07:21:11.377Z,8.10
2022-11-12T07:23:13.176Z,8.30
2022-11-12T07:25:15.175Z,8.35
2022-11-12T07:27:17.104Z,8.80
2022-11-12T07:29:35.709Z,8.35
2022-11-12T07:31:41.096Z,7.88
2022-11-12T07:33:43.913Z,7.88
2022-11-12T07:35:45.676Z,6.90
2022-11-12T07:37:47.495Z,7.63
2022-11-12T07:39:49.325Z,7.93
2022-11-12T07:41:52.006Z,6.68
2022-11-12T07:43:54.476Z,7.63
2022-11-12T07:46:10.874Z,7.80
2022-11-12T07:48:12.947Z,8.32
2022-11-12T07:50:15.125Z,8.15
2022-11-12T07:52:16.986Z,8.07
2022-11-12T07:54:18.914Z,7.60
2022-11-12T07:56:23.030Z,7.72
2022-11-12T07:58:25.498Z,7.90
2022-11-12T08:00:27.744Z,8.32
2022-11-12T08:02:29.608Z,7.38
2022-11-12T08:04:31.703Z,7.90
2022-11-12T08:06:33.907Z,8.07
2022-11-12T08:08:35.838Z,8.20
2022-11-12T08:10:38.460Z,8.63
2022-11-12T08:12:40.337Z,7.30
2022-11-12T08:14:43.210Z,8.38
2022-11-12T08:16:46.798Z,8.10
2022-11-12T08:18:48.808Z,7.82
2022-11-12T08:20:50.731Z,7.22
2022-11-12T08:22:52.679Z,7.88
2022-11-12T08:24:54.558Z,7.80
2022-11-12T08:26:56.418Z,8.35
2022-11-12T08:28:58.323Z,8.05
2022-11-12T08:31:12.127Z,8.02
2022-11-12T08:33:14.101Z,8.18
2022-11-12T08:35:16.108Z,7.97
2022-11-12T08:37:17.920Z,8.00
2022-11-12T08:39:19.880Z,8.38
2022-11-12T08:41:21.798Z,7.90
2022-11-12T08:43:23.729Z,8.13
2022-11-12T08:45:25.987Z,8.57
2022-11-12T08:47:27.796Z,8.13
2022-11-12T08:49:29.907Z,7.65
2022-11-12T08:51:32.039Z,8.55
2022-11-12T08:53:34.081Z,8.95
2022-11-12T08:55:36.986Z,8.40
2022-11-12T08:57:42.699Z,7.68
2022-11-12T08:59:44.606Z,8.60
2022-11-12T09:01:46.468Z,8.52
2022-11-12T09:03:49.699Z,8.95
2022-11-12T09:05:53.061Z,8.98
2022-11-12T09:08:01.185Z,8.65
2022-11-12T09:10:03.076Z,9.05
2022-11-12T09:12:13.651Z,8.98
2022-11-12T09:14:18.757Z,9.30
2022-11-12T09:16:21.652Z,8.75
2022-11-12T09:18:23.590Z,9.30
2022-11-12T09:20:26.601Z,9.50
2022-11-12T09:22:28.519Z,8.50
2022-11-12T09:24:30.538Z,9.70
2022-11-12T09:26:32.419Z,10.15
2022-11-12T09:28:34.360Z,8.90
2022-11-12T09:30:38.668Z,9.75
2022-11-12T09:32:40.479Z,10.00
2022-11-12T09:34:42.531Z,10.25
2022-11-12T09:36:44.488Z,9.55
2022-11-12T09:38:46.367Z,9.32
2022-11-12T09:41:06.016Z,9.25
2022-11-12T09:43:18.339Z,10.43
2022-11-12T09:45:31.955Z,10.13
2022-11-12T09:47:48.017Z,10.27
2022-11-12T09:50:01.797Z,9.32
2022-11-12T09:52:10.959Z,9.93
2022-11-12T09:54:23.635Z,10.30
2022-11-12T09:56:26.837Z,9.57
2022-11-12T09:58:29.025Z,10.20
2022-11-12T10:00:31.800Z,9.85
2022-11-12T10:02:42.710Z,9.90
2022-11-12T10:04:50.669Z,9.25
2022-11-12T10:07:04.377Z,9.85
2022-11-12T10:09:20.063Z,9.30
2022-11-12T10:11:52.827Z,9.30
2022-11-12T10:14:11.000Z,8.52
2022-11-12T10:16:39.658Z,9.05
2022-11-12T10:19:00.807Z,8.93
2022-11-12T10:21:12.368Z,8.77
2022-11-12T10:23:27.279Z,9.57
2022-11-12T10:25:29.997Z,8.30
2022-11-12T10:27:40.485Z,9.30
2022-11-12T10:29:57.539Z,9.05
2022-11-12T10:32:02.957Z,8.52
2022-11-12T10:34:15.524Z,8.65
2022-11-12T10:36:18.816Z,8.40
2022-11-12T10:38:27.089Z,8.43
2022-11-12T10:40:35.941Z,8.32
2022-11-12T10:42:58.046Z,8.73
2022-11-12T10:45:21.028Z,8.27
2022-11-12T10:47:33.256Z,8.10
2022-11-12T10:49:35.238Z,8.07
2022-11-12T10:51:38.965Z,8.23
2022-11-12T10:53:41.281Z,7.47
2022-11-12T10:55:57.698Z,8.52
2022-11-12T10:58:10.581Z,7.82
2022-11-12T11:00:13.870Z,8.15
2022-11-12T11:02:19.167Z,8.45
2022-11-12T11:04:32.551Z,8.38
2022-11-12T11:06:34.581Z,7.43
2022-11-12T11:08:47.100Z,7.90
2022-11-12T11:10:49.009Z,7.85
2022-11-12T11:13:10.139Z,7.70
2022-11-12T11:15:23.790Z,6.68
2022-11-12T11:17:25.681Z,6.93
2022-11-12T11:19:35.055Z,7.43
2022-11-12T11:21:49.401Z,7.03
2022-11-12T11:24:04.155Z,6.18
2022-11-12T11:26:20.758Z,7.18
2022-11-12T11:28:39.208Z,6.30
2022-11-12T11:30:52.491Z,6.28
2022-11-12T11:33:07.338Z,6.43
2022-11-12T11:35:19.264Z,7.22
2022-11-12T11:37:32.995Z,6.60
2022-11-12T11:39:49.121Z,6.95
2022-11-12T11:42:07.092Z,6.47
2022-11-12T11:44:22.382Z,6.00
2022-11-12T11:46:34.085Z,6.40
2022-11-12T11:48:55.089Z,6.18
2022-11-12T11:51:05.823Z,5.72
2022-11-12T11:55:21.023Z,5.40
2022-11-12T11:57:34.822Z,5.90
2022-11-12T11:59:43.368Z,5.43
2022-11-12T12:02:02.727Z,5.43
2022-11-12T12:04:25.221Z,4.97
2022-11-12T12:06:31.374Z,5.20
2022-11-12T12:08:44.256Z,5.30
2022-11-12T12:11:12.507Z,5.47
2022-11-12T12:13:31.711Z,5.43
2022-11-12T12:15:46.451Z,5.40
2022-11-12T12:18:02.786Z,5.50
2022-11-12T12:20:24.271Z,4.82
2022-11-12T12:22:40.430Z,5.60
2022-11-12T12:24:56.599Z,5.22
2022-11-12T12:27:10.798Z,4.88
2022-11-12T12:29:23.137Z,5.20
2022-11-12T12:31:31.468Z,4.60
2022-11-12T12:33:44.586Z,4.65
2022-11-12T12:36:00.409Z,5.40
2022-11-12T12:38:14.848Z,5.20
2022-11-12T12:40:21.995Z,4.72
2022-11-12T12:42:35.125Z,5.13
2022-11-12T12:44:55.781Z,4.82
2022-11-12T12:47:01.683Z,4.90
2022-11-12T12:49:07.596Z,5.05
2022-11-12T12:51:10.551Z,4.70
2022-11-12T12:53:22.477Z,4.75
2022-11-12T12:55:35.845Z,5.45
2022-11-12T12:57:40.117Z,4.55
2022-11-12T12:59:42.387Z,4.55
2022-11-12T13:01:44.664Z,4.80
2022-11-12T13:03:52.233Z,4.50
2022-11-12T13:06:08.916Z,4.53
2022-11-12T13:08:21.338Z,4.13
2022-11-12T13:10:43.102Z,4.55
2022-11-12T13:13:03.373Z,4.03
2022-11-12T13:15:11.212Z,4.70
2022-11-12T13:17:33.664Z,3.97
2022-11-12T13:19:40.264Z,4.05
2022-11-12T13:21:44.838Z,4.40
2022-11-12T13:23:57.839Z,4.63
2022-11-12T13:26:29.421Z,4.72
2022-11-12T13:28:31.802Z,4.38
2022-11-12T13:30:34.410Z,4.55
2022-11-12T13:32:38.047Z,4.63
2022-11-12T13:34:40.552Z,4.95
2022-11-12T13:36:57.530Z,4.68
2022-11-12T13:39:14.352Z,4.68
2022-11-12T13:41:40.489Z,5.05
2022-11-12T13:43:48.219Z,4.38
2022-11-12T13:46:11.263Z,5.32
2022-11-12T13:48:20.897Z,5.03
2022-11-12T13:50:25.487Z,4.70
2022-11-12T13:52:29.799Z,4.50
2022-11-12T13:54:37.391Z,4.40
2022-11-12T13:56:39.689Z,4.82
2022-11-12T13:58:43.944Z,5.63
2022-11-12T14:00:57.509Z,4.55
2022-11-12T14:03:07.077Z,4.68
2022-11-12T14:05:16.699Z,4.43
2022-11-12T14:07:35.643Z,5.10
2022-11-12T14:09:57.147Z,4.88
2022-11-12T14:12:15.438Z,4.95
2022-11-12T14:14:34.592Z,4.38
2022-11-12T14:16:48.025Z,5.65
2022-11-12T14:19:10.359Z,4.53
2022-11-12T14:21:22.753Z,4.75
2022-11-12T14:23:26.976Z,4.28
2022-11-12T14:25:29.755Z,4.82
2022-11-12T14:27:32.561Z,4.20
2022-11-12T14:29:42.452Z,4.03
2022-11-12T14:31:47.375Z,4.03
2022-11-12T14:33:49.757Z,4.28
2022-11-12T14:35:53.066Z,3.83
2022-11-12T14:38:05.513Z,3.53
2022-11-12T14:40:16.913Z,3.92
2022-11-12T14:42:19.622Z,4.30
2022-11-12T14:44:30.138Z,4.22
2022-11-12T14:46:45.790Z,3.78
2022-11-12T14:49:02.738Z,4.75
2022-11-12T14:51:09.793Z,4.72
2022-11-12T14:53:33.115Z,4.53
2022-11-12T14:55:40.769Z,3.47
2022-11-12T14:57:44.652Z,4.28
2022-11-12T14:59:47.594Z,3.45
2022-11-12T15:04:39.145Z,3.72
2022-11-12T15:06:41.903Z,3.45
2022-11-12T15:08:44.476Z,3.90
2022-11-12T15:10:47.970Z,3.22
2022-11-12T15:12:50.159Z,3.78
2022-11-12T15:14:54.070Z,3.53
2022-11-12T15:16:56.643Z,3.33
2022-11-12T15:19:03.682Z,3.20
2022-11-12T15:21:16.198Z,3.28
2022-11-12T15:23:19.596Z,3.80
2022-11-12T15:25:22.601Z,3.63
2022-11-12T15:27:36.443Z,4.00
2022-11-12T15:29:39.149Z,3.85
2022-11-12T15:31:54.496Z,4.03
2022-11-12T15:34:20.151Z,3.85
2022-11-12T15:36:25.098Z,4.05
2022-11-12T15:38:32.099Z,3.78
2022-11-12T15:40:43.932Z,3.60
2022-11-12T15:42:47.849Z,4.55
2022-11-12T15:44:51.701Z,4.40
2022-11-12T15:46:54.469Z,5.03
2022-11-12T15:48:57.591Z,4.65
2022-11-12T15:51:00.890Z,4.13
2022-11-12T15:53:03.724Z,4.30
2022-11-12T15:55:07.177Z,4.57
2022-11-12T15:57:16.257Z,5.15
2022-11-12T15:59:19.147Z,4.53
2022-11-12T16:01:22.101Z,4.30
2022-11-12T16:03:25.159Z,4.57
2022-11-12T16:05:28.927Z,4.40
2022-11-12T16:07:32.858Z,4.95
2022-11-12T16:09:35.499Z,4.22
2022-11-12T16:11:40.524Z,4.78
2022-11-12T16:13:42.970Z,4.80
2022-11-12T16:15:45.588Z,4.88
2022-11-12T16:17:49.959Z,4.78
2022-11-12T16:19:52.412Z,4.75
2022-11-12T16:21:54.993Z,5.25
2022-11-12T16:23:57.731Z,4.63
2022-11-12T16:26:02.481Z,4.93
2022-11-12T16:28:11.420Z,4.80
2022-11-12T16:30:18.595Z,5.10
2022-11-12T16:32:22.858Z,5.00
2022-11-12T16:34:25.705Z,5.18
2022-11-12T16:36:29.264Z,5.13
2022-11-12T16:38:31.880Z,5.25
2022-11-12T16:40:34.504Z,5.38
2022-11-12T16:42:46.509Z,5.80
2022-11-12T16:44:49.339Z,5.50
2022-11-12T16:46:53.896Z,5.38
2022-11-12T16:49:01.114Z,5.45
2022-11-12T16:51:03.942Z,5.75
2022-11-12T16:53:06.750Z,5.78
2022-11-12T16:55:10.289Z,5.47
2022-11-12T16:57:13.218Z,5.78
2022-11-12T16:59:15.562Z,6.18
2022-11-12T17:01:29.202Z,6.22
2022-11-12T17:03:33.643Z,6.00
2022-11-12T17:05:36.015Z,7.45
2022-11-12T17:07:38.519Z,8.23
2022-11-12T17:09:41.175Z,7.82
2022-11-12T17:11:43.970Z,7.40
2022-11-12T17:13:46.666Z,7.03
2022-11-12T17:15:49.330Z,7.78
2022-11-12T17:17:54.859Z,6.82
2022-11-12T17:19:57.658Z,7.93
2022-11-12T17:22:00.277Z,7.55
2022-11-12T17:24:03.025Z,7.93
2022-11-12T17:26:08.679Z,7.63
2022-11-12T17:28:11.350Z,8.32
2022-11-12T17:30:14.189Z,7.95
2022-11-12T17:32:16.836Z,8.18
2022-11-12T17:34:19.701Z,7.90
2022-11-12T17:36:26.096Z,8.52
2022-11-12T17:38:29.480Z,8.75
2022-11-12T17:40:32.443Z,8.50
2022-11-12T17:42:35.134Z,8.30
2022-11-12T17:44:37.906Z,9.02
2022-11-12T17:46:41.143Z,8.23
2022-11-12T17:48:44.451Z,8.98
2022-11-12T17:50:49.159Z,9.38
2022-11-12T17:52:51.904Z,8.93
2022-11-12T17:54:57.234Z,9.40
2022-11-12T17:57:00.149Z,9.65
2022-11-12T17:59:04.707Z,9.18
2022-11-12T18:01:15.879Z,9.57
2022-11-12T18:03:20.017Z,9.55
2022-11-12T18:05:22.537Z,9.40
2022-11-12T18:07:25.098Z,9.25
2022-11-12T18:09:27.404Z,8.77
2022-11-12T18:11:33.360Z,9.32
2022-11-12T18:13:35.924Z,8.27
2022-11-12T18:15:38.168Z,9.65
2022-11-12T18:17:40.797Z,8.63
2022-11-12T18:19:43.212Z,9.43
2022-11-12T18:21:45.802Z,8.70
2022-11-12T18:23:48.209Z,9.23
2022-11-12T18:25:50.668Z,8.88
2022-11-12T18:27:52.978Z,8.05
2022-11-12T18:29:55.516Z,8.48
2022-11-12T18:31:58.181Z,9.15
2022-11-12T18:34:01.343Z,9.98
2022-11-12T18:36:05.826Z,10.13
2022-11-12T18:38:09.012Z,9.32
2022-11-12T18:40:14.028Z,10.10
2022-11-12T18:42:16.769Z,10.02
2022-11-12T18:44:23.286Z,10.10
2022-11-12T18:46:31.394Z,10.80
2022-11-12T18:48:35.513Z,10.90
2022-11-12T18:50:38.735Z,10.30
2022-11-12T18:52:41.576Z,10.30
2022-11-12T18:54:44.551Z,11.00
2022-11-12T18:56:48.383Z,10.55
2022-11-12T18:58:51.421Z,10.88
2022-11-12T19:00:53.880Z,11.15
2022-11-12T19:02:56.392Z,11.35
2022-11-12T19:05:00.005Z,10.73
2022-11-12T19:07:02.919Z,10.43
2022-11-12T19:09:11.874Z,10.23
2022-11-12T19:11:16.619Z,10.57
2022-11-12T19:13:19.270Z,10.82
2022-11-12T19:15:26.620Z,11.45
2022-11-12T19:17:31.177Z,10.88
2022-11-12T19:19:34.117Z,11.32
2022-11-12T19:21:37.220Z,10.77
2022-11-12T19:23:40.112Z,11.25
2022-11-12T19:25:42.644Z,11.30
2022-11-12T19:27:45.146Z,11.13
2022-11-12T19:29:50.037Z,11.50
2022-11-12T19:31:52.601Z,11.02
2022-11-12T19:33:58.966Z,11.23
2022-11-12T19:36:06.710Z,11.68
2022-11-12T19:38:09.714Z,12.07
2022-11-12T19:40:12.657Z,11.00
2022-11-12T19:42:15.091Z,11.68
2022-11-12T19:44:17.563Z,12.02
2022-11-12T19:46:20.384Z,12.10
2022-11-12T19:48:22.778Z,11.65
2022-11-12T19:50:25.091Z,11.50
2022-11-12T19:52:27.658Z,12.27
2022-11-12T19:54:31.359Z,11.65
2022-11-12T19:56:34.947Z,12.13
2022-11-12T19:58:37.380Z,12.52
2022-11-12T20:00:39.794Z,12.52
2022-11-12T20:02:42.945Z,12.75
2022-11-12T20:04:45.238Z,12.52
2022-11-12T20:06:47.811Z,13.13
2022-11-12T20:08:50.330Z,13.10
2022-11-12T20:10:52.753Z,13.02
2022-11-12T20:12:55.407Z,12.18
2022-11-12T20:14:58.253Z,14.25
2022-11-12T20:17:00.644Z,13.98
2022-11-12T20:19:03.854Z,13.55
2022-11-12T20:21:06.423Z,14.75
2022-11-12T20:23:08.880Z,15.73
2022-11-12T20:25:11.258Z,15.73
2022-11-12T20:27:13.495Z,14.68
2022-11-12T20:29:16.041Z,16.02
2022-11-12T20:31:21.168Z,15.18
2022-11-12T20:33:23.685Z,15.82
2022-11-12T20:35:26.180Z,14.95
2022-11-12T20:37:30.681Z,14.50
2022-11-12T20:39:33.056Z,16.13
2022-11-12T20:41:35.754Z,15.20
2022-11-12T20:43:38.276Z,15.18
2022-11-12T20:45:40.693Z,14.88
2022-11-12T20:47:44.196Z,14.55
2022-11-12T20:49:46.495Z,14.73
2022-11-12T20:51:48.722Z,15.05
2022-11-12T20:53:55.898Z,14.88
2022-11-12T20:56:06.193Z,15.45
2022-11-12T20:58:08.326Z,14.80
2022-11-12T21:00:14.131Z,14.43
2022-11-12T21:02:18.596Z,15.48
2022-11-12T21:04:20.837Z,16.70
2022-11-12T21:06:26.593Z,16.95
2022-11-12T21:08:30.760Z,16.80
2022-11-12T21:10:33.144Z,18.40
2022-11-12T21:12:35.596Z,18.30
2022-11-12T21:14:37.926Z,18.65
2022-11-12T21:16:40.528Z,19.77
2022-11-12T21:18:43.495Z,18.02
2022-11-12T21:20:47.552Z,16.75
2022-11-12T21:22:49.714Z,16.70
2022-11-12T21:24:51.923Z,14.88
2022-11-12T21:26:54.115Z,15.82
2022-11-12T21:28:56.495Z,16.08
2022-11-12T21:31:04.334Z,16.15
2022-11-12T21:33:06.720Z,15.43
2022-11-12T21:35:09.732Z,15.88
2022-11-12T21:37:11.959Z,15.52
2022-11-12T21:39:14.235Z,17.10
2022-11-12T21:41:19.580Z,14.93
2022-11-12T21:43:21.777Z,17.58
2022-11-12T21:45:24.132Z,17.58
2022-11-12T21:47:26.860Z,16.55
2022-11-12T21:49:29.623Z,16.95
2022-11-12T21:51:33.564Z,16.55
2022-11-12T21:53:35.872Z,16.77
2022-11-12T21:55:38.104Z,16.33
2022-11-12T21:57:40.272Z,17.67
2022-11-12T21:59:43.252Z,16.98
2022-11-12T22:01:45.848Z,17.75
2022-11-12T22:03:50.734Z,17.73
2022-11-12T22:05:53.000Z,17.48
2022-11-12T22:07:55.449Z,17.40
2022-11-12T22:09:57.685Z,17.20
2022-11-12T22:12:00.028Z,17.77
2022-11-12T22:14:02.266Z,17.00
2022-11-12T22:16:08.030Z,17.35
2022-11-12T22:18:10.053Z,16.92
2022-11-12T22:20:12.575Z,17.40
2022-11-12T22:22:14.693Z,18.42
2022-11-12T22:24:18.028Z,17.95
2022-11-12T22:26:23.840Z,16.63
2022-11-12T22:28:26.948Z,17.65
2022-11-12T22:30:29.431Z,16.65
2022-11-12T22:32:32.108Z,16.77
2022-11-12T22:34:34.247Z,16.70
2022-11-12T22:36:36.227Z,17.98
2022-11-12T22:38:40.618Z,18.70
2022-11-12T22:40:42.622Z,17.50
2022-11-12T22:42:44.818Z,17.30
2022-11-12T22:44:46.892Z,17.17
2022-11-12T22:46:48.945Z,17.08
2022-11-12T22:48:51.780Z,17.52
2022-11-12T22:50:59.076Z,17.45
2022-11-12T22:53:01.704Z,19.55
2022-11-12T22:55:04.142Z,19.00
2022-11-12T22:57:06.138Z,17.85
2022-11-12T22:59:10.774Z,18.17
2022-11-12T23:01:22.418Z,18.73
2022-11-12T23:03:24.664Z,18.67
2022-11-12T23:05:26.620Z,17.25
2022-11-12T23:07:29.908Z,19.13
2022-11-12T23:09:34.214Z,18.23
2022-11-12T23:11:37.973Z,19.50
2022-11-12T23:13:39.981Z,18.50
2022-11-12T23:15:46.830Z,18.05
2022-11-12T23:17:48.888Z,19.92
2022-11-12T23:19:51.674Z,19.10
2022-11-12T23:21:54.272Z,18.65
2022-11-12T23:23:57.717Z,19.05
2022-11-12T23:26:11.808Z,18.95
2022-11-12T23:28:13.883Z,18.90
2022-11-12T23:30:16.523Z,19.13
2022-11-12T23:32:18.712Z,18.95
2022-11-12T23:34:20.632Z,18.63
2022-11-12T23:36:24.411Z,18.58
2022-11-12T23:38:26.618Z,17.98
2022-11-12T23:40:31.174Z,18.33
2022-11-12T23:42:33.212Z,17.67
2022-11-12T23:44:35.312Z,17.80
2022-11-12T23:46:37.255Z,16.52
2022-11-12T23:48:39.338Z,17.98
2022-11-12T23:50:41.323Z,17.00
2022-11-12T23:52:43.404Z,17.88
2022-11-12T23:54:45.192Z,17.80
2022-11-12T23:56:47.030Z,16.85
2022-11-12T23:58:49.403Z,16.48
